sensor_id;sensor_type;location;lat;lon;timestamp;temperature;humidity
49413;DHT22;35493;50.276;9.372;2022-10-13T00:01:17;10.90;88.30
49413;DHT22;35493;50.276;9.372;2022-10-13T00:03:45;10.90;88.30
49413;DHT22;35493;50.276;9.372;2022-10-13T00:06:21;10.90;88.40
49413;DHT22;35493;50.276;9.372;2022-10-13T00:08:49;10.90;88.40
49413;DHT22;35493;50.276;9.372;2022-10-13T00:11:24;10.90;88.40
49413;DHT22;35493;50.276;9.372;2022-10-13T00:14:01;10.90;88.40
49413;DHT22;35493;50.276;9.372;2022-10-13T00:16:30;10.80;88.40
49413;DHT22;35493;50.276;9.372;2022-10-13T00:18:57;10.90;88.40
49413;DHT22;35493;50.276;9.372;2022-10-13T00:21:25;10.90;88.30
49413;DHT22;35493;50.276;9.372;2022-10-13T00:23:53;10.80;88.30
49413;DHT22;35493;50.276;9.372;2022-10-13T00:26:22;10.80;88.30
49413;DHT22;35493;50.276;9.372;2022-10-13T00:28:50;10.80;88.30
49413;DHT22;35493;50.276;9.372;2022-10-13T00:31:20;10.70;88.30
49413;DHT22;35493;50.276;9.372;2022-10-13T00:33:47;10.70;88.30
49413;DHT22;35493;50.276;9.372;2022-10-13T00:36:16;10.70;88.20
49413;DHT22;35493;50.276;9.372;2022-10-13T00:38:43;10.70;88.30
49413;DHT22;35493;50.276;9.372;2022-10-13T00:41:10;10.70;88.30
49413;DHT22;35493;50.276;9.372;2022-10-13T00:43:54;10.70;88.30
49413;DHT22;35493;50.276;9.372;2022-10-13T00:46:25;10.70;88.30
49413;DHT22;35493;50.276;9.372;2022-10-13T00:48:58;10.70;88.30
49413;DHT22;35493;50.276;9.372;2022-10-13T00:51:31;10.70;88.30
49413;DHT22;35493;50.276;9.372;2022-10-13T00:54:00;10.70;88.30
49413;DHT22;35493;50.276;9.372;2022-10-13T00:56:29;10.70;88.30
49413;DHT22;35493;50.276;9.372;2022-10-13T00:58:56;10.80;88.30
49413;DHT22;35493;50.276;9.372;2022-10-13T01:01:24;10.70;88.30
49413;DHT22;35493;50.276;9.372;2022-10-13T01:03:51;10.80;88.30
49413;DHT22;35493;50.276;9.372;2022-10-13T01:06:18;10.80;88.30
49413;DHT22;35493;50.276;9.372;2022-10-13T01:08:45;10.80;88.40
49413;DHT22;35493;50.276;9.372;2022-10-13T01:11:29;10.70;88.50
49413;DHT22;35493;50.276;9.372;2022-10-13T01:14:05;10.80;88.40
49413;DHT22;35493;50.276;9.372;2022-10-13T01:16:41;10.70;88.40
49413;DHT22;35493;50.276;9.372;2022-10-13T01:19:24;10.70;88.50
49413;DHT22;35493;50.276;9.372;2022-10-13T01:22:02;10.70;88.30
49413;DHT22;35493;50.276;9.372;2022-10-13T01:24:44;10.70;88.30
49413;DHT22;35493;50.276;9.372;2022-10-13T01:27:21;10.70;88.30
49413;DHT22;35493;50.276;9.372;2022-10-13T01:30:08;10.70;88.40
49413;DHT22;35493;50.276;9.372;2022-10-13T01:32:59;10.60;88.50
49413;DHT22;35493;50.276;9.372;2022-10-13T01:35:41;10.60;88.50
49413;DHT22;35493;50.276;9.372;2022-10-13T01:38:15;10.60;88.50
49413;DHT22;35493;50.276;9.372;2022-10-13T01:40:52;10.60;88.30
49413;DHT22;35493;50.276;9.372;2022-10-13T01:43:23;10.60;88.40
49413;DHT22;35493;50.276;9.372;2022-10-13T01:45:55;10.60;88.40
49413;DHT22;35493;50.276;9.372;2022-10-13T01:48:23;10.60;88.40
49413;DHT22;35493;50.276;9.372;2022-10-13T01:50:51;10.60;88.30
49413;DHT22;35493;50.276;9.372;2022-10-13T01:53:19;10.60;88.30
49413;DHT22;35493;50.276;9.372;2022-10-13T01:55:53;10.50;88.30
49413;DHT22;35493;50.276;9.372;2022-10-13T01:58:21;10.50;88.30
49413;DHT22;35493;50.276;9.372;2022-10-13T02:01:02;10.50;88.40
49413;DHT22;35493;50.276;9.372;2022-10-13T02:03:39;10.40;88.40
49413;DHT22;35493;50.276;9.372;2022-10-13T02:06:16;10.40;88.40
49413;DHT22;35493;50.276;9.372;2022-10-13T02:08:52;10.50;88.40
49413;DHT22;35493;50.276;9.372;2022-10-13T02:11:22;10.50;88.20
49413;DHT22;35493;50.276;9.372;2022-10-13T02:13:53;10.50;88.10
49413;DHT22;35493;50.276;9.372;2022-10-13T02:16:28;10.50;88.10
49413;DHT22;35493;50.276;9.372;2022-10-13T02:18:57;10.50;88.10
49413;DHT22;35493;50.276;9.372;2022-10-13T02:21:24;10.50;88.10
49413;DHT22;35493;50.276;9.372;2022-10-13T02:23:53;10.50;88.10
49413;DHT22;35493;50.276;9.372;2022-10-13T02:26:21;10.50;88.30
49413;DHT22;35493;50.276;9.372;2022-10-13T02:28:57;10.50;88.10
49413;DHT22;35493;50.276;9.372;2022-10-13T02:31:24;10.60;88.00
49413;DHT22;35493;50.276;9.372;2022-10-13T02:33:52;10.40;88.00
49413;DHT22;35493;50.276;9.372;2022-10-13T02:36:19;10.40;88.10
49413;DHT22;35493;50.276;9.372;2022-10-13T02:38:46;10.40;88.10
49413;DHT22;35493;50.276;9.372;2022-10-13T02:41:13;10.30;88.20
49413;DHT22;35493;50.276;9.372;2022-10-13T02:43:39;10.40;88.20
49413;DHT22;35493;50.276;9.372;2022-10-13T02:46:06;10.30;88.10
49413;DHT22;35493;50.276;9.372;2022-10-13T02:48:33;10.30;88.20
49413;DHT22;35493;50.276;9.372;2022-10-13T02:51:02;10.30;88.10
49413;DHT22;35493;50.276;9.372;2022-10-13T02:53:28;10.30;88.20
49413;DHT22;35493;50.276;9.372;2022-10-13T02:55:55;10.30;88.20
49413;DHT22;35493;50.276;9.372;2022-10-13T02:58:24;10.30;88.20
49413;DHT22;35493;50.276;9.372;2022-10-13T03:00:51;10.30;88.20
49413;DHT22;35493;50.276;9.372;2022-10-13T03:03:18;10.30;88.10
49413;DHT22;35493;50.276;9.372;2022-10-13T03:05:47;10.40;88.10
49413;DHT22;35493;50.276;9.372;2022-10-13T03:08:16;10.30;88.00
49413;DHT22;35493;50.276;9.372;2022-10-13T03:10:44;10.30;88.00
49413;DHT22;35493;50.276;9.372;2022-10-13T03:13:11;10.30;88.00
49413;DHT22;35493;50.276;9.372;2022-10-13T03:15:37;10.30;88.00
49413;DHT22;35493;50.276;9.372;2022-10-13T03:18:04;10.30;88.00
49413;DHT22;35493;50.276;9.372;2022-10-13T03:20:31;10.30;88.00
49413;DHT22;35493;50.276;9.372;2022-10-13T03:22:58;10.30;88.00
49413;DHT22;35493;50.276;9.372;2022-10-13T03:25:26;10.30;88.10
49413;DHT22;35493;50.276;9.372;2022-10-13T03:27:54;10.30;88.00
49413;DHT22;35493;50.276;9.372;2022-10-13T03:30:21;10.30;88.00
49413;DHT22;35493;50.276;9.372;2022-10-13T03:32:51;10.30;87.90
49413;DHT22;35493;50.276;9.372;2022-10-13T03:35:18;10.20;87.90
49413;DHT22;35493;50.276;9.372;2022-10-13T03:37:45;10.30;87.90
49413;DHT22;35493;50.276;9.372;2022-10-13T03:40:12;10.30;87.80
49413;DHT22;35493;50.276;9.372;2022-10-13T03:42:40;10.30;87.70
49413;DHT22;35493;50.276;9.372;2022-10-13T03:45:07;10.30;87.80
49413;DHT22;35493;50.276;9.372;2022-10-13T03:47:35;10.30;87.80
49413;DHT22;35493;50.276;9.372;2022-10-13T03:50:03;10.20;88.00
49413;DHT22;35493;50.276;9.372;2022-10-13T03:52:31;10.20;87.90
49413;DHT22;35493;50.276;9.372;2022-10-13T03:54:58;10.20;88.00
49413;DHT22;35493;50.276;9.372;2022-10-13T03:57:24;10.30;87.90
49413;DHT22;35493;50.276;9.372;2022-10-13T03:59:53;10.20;88.00
49413;DHT22;35493;50.276;9.372;2022-10-13T04:02:22;10.20;87.90
49413;DHT22;35493;50.276;9.372;2022-10-13T04:04:52;10.20;87.90
49413;DHT22;35493;50.276;9.372;2022-10-13T04:07:19;10.20;87.70
49413;DHT22;35493;50.276;9.372;2022-10-13T04:09:46;10.20;87.80
49413;DHT22;35493;50.276;9.372;2022-10-13T04:12:12;10.10;87.80
49413;DHT22;35493;50.276;9.372;2022-10-13T04:14:39;10.10;87.70
49413;DHT22;35493;50.276;9.372;2022-10-13T04:17:08;10.20;87.60
49413;DHT22;35493;50.276;9.372;2022-10-13T04:19:35;10.20;87.50
49413;DHT22;35493;50.276;9.372;2022-10-13T04:22:04;10.20;87.50
49413;DHT22;35493;50.276;9.372;2022-10-13T04:24:31;10.10;87.50
49413;DHT22;35493;50.276;9.372;2022-10-13T04:26:58;10.10;87.50
49413;DHT22;35493;50.276;9.372;2022-10-13T04:29:24;10.10;87.60
49413;DHT22;35493;50.276;9.372;2022-10-13T04:31:52;10.10;87.40
49413;DHT22;35493;50.276;9.372;2022-10-13T04:34:21;10.10;87.50
49413;DHT22;35493;50.276;9.372;2022-10-13T04:36:48;10.10;87.60
49413;DHT22;35493;50.276;9.372;2022-10-13T04:39:15;10.10;87.70
49413;DHT22;35493;50.276;9.372;2022-10-13T04:41:44;10.10;87.70
49413;DHT22;35493;50.276;9.372;2022-10-13T04:44:11;10.10;87.70
49413;DHT22;35493;50.276;9.372;2022-10-13T04:46:38;10.10;87.70
49413;DHT22;35493;50.276;9.372;2022-10-13T04:49:05;10.10;87.70
49413;DHT22;35493;50.276;9.372;2022-10-13T04:51:34;10.10;87.80
49413;DHT22;35493;50.276;9.372;2022-10-13T04:54:01;10.10;87.70
49413;DHT22;35493;50.276;9.372;2022-10-13T04:56:30;10.10;87.80
49413;DHT22;35493;50.276;9.372;2022-10-13T04:59:01;10.10;87.70
49413;DHT22;35493;50.276;9.372;2022-10-13T05:01:30;10.20;87.60
49413;DHT22;35493;50.276;9.372;2022-10-13T05:03:59;10.20;87.60
49413;DHT22;35493;50.276;9.372;2022-10-13T05:06:29;10.20;87.50
49413;DHT22;35493;50.276;9.372;2022-10-13T05:08:57;10.30;87.40
49413;DHT22;35493;50.276;9.372;2022-10-13T05:11:25;10.20;87.50
49413;DHT22;35493;50.276;9.372;2022-10-13T05:13:52;10.20;87.60
49413;DHT22;35493;50.276;9.372;2022-10-13T05:16:20;10.20;87.60
49413;DHT22;35493;50.276;9.372;2022-10-13T05:18:47;10.20;87.60
49413;DHT22;35493;50.276;9.372;2022-10-13T05:21:16;10.10;87.60
49413;DHT22;35493;50.276;9.372;2022-10-13T05:23:44;10.20;87.60
49413;DHT22;35493;50.276;9.372;2022-10-13T05:26:13;10.20;87.60
49413;DHT22;35493;50.276;9.372;2022-10-13T05:28:41;10.20;87.60
49413;DHT22;35493;50.276;9.372;2022-10-13T05:31:09;10.20;87.50
49413;DHT22;35493;50.276;9.372;2022-10-13T05:33:37;10.20;87.50
49413;DHT22;35493;50.276;9.372;2022-10-13T05:36:05;10.20;87.60
49413;DHT22;35493;50.276;9.372;2022-10-13T05:38:36;10.20;87.60
49413;DHT22;35493;50.276;9.372;2022-10-13T05:41:04;10.10;87.70
49413;DHT22;35493;50.276;9.372;2022-10-13T05:43:33;10.10;87.80
49413;DHT22;35493;50.276;9.372;2022-10-13T05:46:00;10.10;87.80
49413;DHT22;35493;50.276;9.372;2022-10-13T05:48:28;10.10;87.90
49413;DHT22;35493;50.276;9.372;2022-10-13T05:50:57;10.20;87.70
49413;DHT22;35493;50.276;9.372;2022-10-13T05:53:31;10.20;87.80
49413;DHT22;35493;50.276;9.372;2022-10-13T05:56:05;10.20;87.60
49413;DHT22;35493;50.276;9.372;2022-10-13T05:58:37;10.20;87.60
49413;DHT22;35493;50.276;9.372;2022-10-13T06:01:06;10.20;87.60
49413;DHT22;35493;50.276;9.372;2022-10-13T06:03:34;10.20;87.70
49413;DHT22;35493;50.276;9.372;2022-10-13T06:06:01;10.20;87.80
49413;DHT22;35493;50.276;9.372;2022-10-13T06:08:28;10.20;87.60
49413;DHT22;35493;50.276;9.372;2022-10-13T06:10:56;10.20;87.50
49413;DHT22;35493;50.276;9.372;2022-10-13T06:13:23;10.20;87.50
49413;DHT22;35493;50.276;9.372;2022-10-13T06:15:51;10.20;87.70
49413;DHT22;35493;50.276;9.372;2022-10-13T06:18:18;10.20;87.70
49413;DHT22;35493;50.276;9.372;2022-10-13T06:20:44;10.20;87.80
49413;DHT22;35493;50.276;9.372;2022-10-13T06:23:14;10.20;87.90
49413;DHT22;35493;50.276;9.372;2022-10-13T06:25:46;10.20;88.00
49413;DHT22;35493;50.276;9.372;2022-10-13T06:28:13;10.20;88.10
49413;DHT22;35493;50.276;9.372;2022-10-13T06:30:40;10.20;88.00
49413;DHT22;35493;50.276;9.372;2022-10-13T06:33:13;10.20;87.80
49413;DHT22;35493;50.276;9.372;2022-10-13T06:35:42;10.30;87.80
49413;DHT22;35493;50.276;9.372;2022-10-13T06:38:11;10.30;87.70
49413;DHT22;35493;50.276;9.372;2022-10-13T06:40:40;10.30;87.70
49413;DHT22;35493;50.276;9.372;2022-10-13T06:43:07;10.40;87.50
49413;DHT22;35493;50.276;9.372;2022-10-13T06:45:40;10.30;87.50
49413;DHT22;35493;50.276;9.372;2022-10-13T06:48:07;10.40;87.40
49413;DHT22;35493;50.276;9.372;2022-10-13T06:50:36;10.40;87.40
49413;DHT22;35493;50.276;9.372;2022-10-13T06:53:02;10.40;87.50
49413;DHT22;35493;50.276;9.372;2022-10-13T06:55:29;10.50;87.40
49413;DHT22;35493;50.276;9.372;2022-10-13T06:57:56;10.50;87.40
49413;DHT22;35493;50.276;9.372;2022-10-13T07:00:23;10.60;87.30
49413;DHT22;35493;50.276;9.372;2022-10-13T07:02:50;10.60;87.30
49413;DHT22;35493;50.276;9.372;2022-10-13T07:05:18;10.60;87.50
49413;DHT22;35493;50.276;9.372;2022-10-13T07:07:46;10.60;87.30
49413;DHT22;35493;50.276;9.372;2022-10-13T07:10:13;10.60;87.40
49413;DHT22;35493;50.276;9.372;2022-10-13T07:12:40;10.60;87.30
49413;DHT22;35493;50.276;9.372;2022-10-13T07:15:08;10.60;87.30
49413;DHT22;35493;50.276;9.372;2022-10-13T07:17:35;10.60;87.70
49413;DHT22;35493;50.276;9.372;2022-10-13T07:20:02;10.70;87.80
49413;DHT22;35493;50.276;9.372;2022-10-13T07:22:30;10.70;87.40
49413;DHT22;35493;50.276;9.372;2022-10-13T07:24:58;10.70;87.60
49413;DHT22;35493;50.276;9.372;2022-10-13T07:27:29;10.70;87.70
49413;DHT22;35493;50.276;9.372;2022-10-13T07:29:56;10.80;87.90
49413;DHT22;35493;50.276;9.372;2022-10-13T07:32:22;10.80;87.80
49413;DHT22;35493;50.276;9.372;2022-10-13T07:34:51;10.90;87.80
49413;DHT22;35493;50.276;9.372;2022-10-13T07:37:18;10.90;87.20
49413;DHT22;35493;50.276;9.372;2022-10-13T07:39:45;11.00;87.20
49413;DHT22;35493;50.276;9.372;2022-10-13T07:42:14;11.00;87.30
49413;DHT22;35493;50.276;9.372;2022-10-13T07:44:41;11.10;87.50
49413;DHT22;35493;50.276;9.372;2022-10-13T07:47:08;11.10;87.60
49413;DHT22;35493;50.276;9.372;2022-10-13T07:49:37;11.20;87.60
49413;DHT22;35493;50.276;9.372;2022-10-13T07:52:04;11.20;87.60
49413;DHT22;35493;50.276;9.372;2022-10-13T07:54:31;11.20;87.70
49413;DHT22;35493;50.276;9.372;2022-10-13T07:56:58;11.20;87.70
49413;DHT22;35493;50.276;9.372;2022-10-13T07:59:26;11.30;87.60
49413;DHT22;35493;50.276;9.372;2022-10-13T08:01:53;11.30;87.60
49413;DHT22;35493;50.276;9.372;2022-10-13T08:04:22;11.40;87.50
49413;DHT22;35493;50.276;9.372;2022-10-13T08:06:50;11.40;87.60
49413;DHT22;35493;50.276;9.372;2022-10-13T08:09:16;11.40;87.80
49413;DHT22;35493;50.276;9.372;2022-10-13T08:11:43;11.40;87.70
49413;DHT22;35493;50.276;9.372;2022-10-13T08:14:12;11.50;87.80
49413;DHT22;35493;50.276;9.372;2022-10-13T08:16:40;11.50;87.80
49413;DHT22;35493;50.276;9.372;2022-10-13T08:19:11;11.50;87.70
49413;DHT22;35493;50.276;9.372;2022-10-13T08:21:38;11.60;87.70
49413;DHT22;35493;50.276;9.372;2022-10-13T08:24:06;11.60;87.20
49413;DHT22;35493;50.276;9.372;2022-10-13T08:26:33;11.70;87.60
49413;DHT22;35493;50.276;9.372;2022-10-13T08:28:59;11.80;87.60
49413;DHT22;35493;50.276;9.372;2022-10-13T08:31:26;11.80;87.50
49413;DHT22;35493;50.276;9.372;2022-10-13T08:33:55;11.90;87.60
49413;DHT22;35493;50.276;9.372;2022-10-13T08:36:22;12.00;87.30
49413;DHT22;35493;50.276;9.372;2022-10-13T08:38:49;12.10;87.50
49413;DHT22;35493;50.276;9.372;2022-10-13T08:41:19;12.20;87.30
49413;DHT22;35493;50.276;9.372;2022-10-13T08:43:51;12.30;87.00
49413;DHT22;35493;50.276;9.372;2022-10-13T08:46:23;12.30;87.00
49413;DHT22;35493;50.276;9.372;2022-10-13T08:48:51;12.30;87.10
49413;DHT22;35493;50.276;9.372;2022-10-13T08:51:21;12.40;86.80
49413;DHT22;35493;50.276;9.372;2022-10-13T08:53:48;12.40;86.60
49413;DHT22;35493;50.276;9.372;2022-10-13T08:56:18;12.40;87.10
49413;DHT22;35493;50.276;9.372;2022-10-13T08:58:47;12.40;87.10
49413;DHT22;35493;50.276;9.372;2022-10-13T09:01:16;12.40;86.70
49413;DHT22;35493;50.276;9.372;2022-10-13T09:03:50;12.40;86.80
49413;DHT22;35493;50.276;9.372;2022-10-13T09:06:22;12.40;86.80
49413;DHT22;35493;50.276;9.372;2022-10-13T09:08:56;12.50;86.90
49413;DHT22;35493;50.276;9.372;2022-10-13T09:11:26;12.50;86.80
49413;DHT22;35493;50.276;9.372;2022-10-13T09:13:55;12.60;86.70
49413;DHT22;35493;50.276;9.372;2022-10-13T09:16:26;12.60;86.60
49413;DHT22;35493;50.276;9.372;2022-10-13T09:18:53;12.60;86.70
49413;DHT22;35493;50.276;9.372;2022-10-13T09:21:23;12.70;86.80
49413;DHT22;35493;50.276;9.372;2022-10-13T09:23:51;12.70;86.80
49413;DHT22;35493;50.276;9.372;2022-10-13T09:26:21;12.70;86.70
49413;DHT22;35493;50.276;9.372;2022-10-13T09:28:49;12.70;86.70
49413;DHT22;35493;50.276;9.372;2022-10-13T09:31:23;12.70;86.60
49413;DHT22;35493;50.276;9.372;2022-10-13T09:33:57;12.70;87.00
49413;DHT22;35493;50.276;9.372;2022-10-13T09:36:26;12.70;86.70
49413;DHT22;35493;50.276;9.372;2022-10-13T09:39:10;12.70;86.70
49413;DHT22;35493;50.276;9.372;2022-10-13T09:41:40;12.70;86.80
49413;DHT22;35493;50.276;9.372;2022-10-13T09:44:11;12.70;86.70
49413;DHT22;35493;50.276;9.372;2022-10-13T09:46:45;12.80;86.70
49413;DHT22;35493;50.276;9.372;2022-10-13T09:49:34;12.90;86.90
49413;DHT22;35493;50.276;9.372;2022-10-13T09:52:15;12.90;86.70
49413;DHT22;35493;50.276;9.372;2022-10-13T09:54:46;13.00;86.60
49413;DHT22;35493;50.276;9.372;2022-10-13T09:57:19;13.00;86.50
49413;DHT22;35493;50.276;9.372;2022-10-13T09:59:49;13.00;86.80
49413;DHT22;35493;50.276;9.372;2022-10-13T10:02:26;13.00;86.70
49413;DHT22;35493;50.276;9.372;2022-10-13T10:04:57;12.90;86.80
49413;DHT22;35493;50.276;9.372;2022-10-13T10:07:30;12.90;86.80
49413;DHT22;35493;50.276;9.372;2022-10-13T10:09:59;12.90;86.90
49413;DHT22;35493;50.276;9.372;2022-10-13T10:12:29;12.90;86.90
49413;DHT22;35493;50.276;9.372;2022-10-13T10:14:56;12.90;86.90
49413;DHT22;35493;50.276;9.372;2022-10-13T10:17:28;12.90;86.90
49413;DHT22;35493;50.276;9.372;2022-10-13T10:20:20;12.90;86.90
49413;DHT22;35493;50.276;9.372;2022-10-13T10:22:57;13.00;87.10
49413;DHT22;35493;50.276;9.372;2022-10-13T10:25:30;13.00;86.90
49413;DHT22;35493;50.276;9.372;2022-10-13T10:28:19;13.10;87.00
49413;DHT22;35493;50.276;9.372;2022-10-13T10:30:55;13.00;86.90
49413;DHT22;35493;50.276;9.372;2022-10-13T10:33:42;13.00;87.00
49413;DHT22;35493;50.276;9.372;2022-10-13T10:36:15;13.10;87.20
49413;DHT22;35493;50.276;9.372;2022-10-13T10:38:50;13.10;87.10
49413;DHT22;35493;50.276;9.372;2022-10-13T10:41:30;13.10;87.10
49413;DHT22;35493;50.276;9.372;2022-10-13T10:44:02;13.00;87.00
49413;DHT22;35493;50.276;9.372;2022-10-13T10:46:33;13.10;87.10
49413;DHT22;35493;50.276;9.372;2022-10-13T10:49:02;13.00;87.00
49413;DHT22;35493;50.276;9.372;2022-10-13T10:51:32;13.10;87.20
49413;DHT22;35493;50.276;9.372;2022-10-13T10:54:15;13.10;87.10
49413;DHT22;35493;50.276;9.372;2022-10-13T10:56:51;13.10;87.10
49413;DHT22;35493;50.276;9.372;2022-10-13T10:59:26;13.10;87.20
49413;DHT22;35493;50.276;9.372;2022-10-13T11:02:02;13.10;87.10
49413;DHT22;35493;50.276;9.372;2022-10-13T11:04:42;13.10;87.00
49413;DHT22;35493;50.276;9.372;2022-10-13T11:07:52;13.20;86.90
49413;DHT22;35493;50.276;9.372;2022-10-13T11:10:16;13.10;87.00
49413;DHT22;35493;50.276;9.372;2022-10-13T11:15:46;13.20;87.20
49413;DHT22;35493;50.276;9.372;2022-10-13T11:18:54;13.20;87.00
49413;DHT22;35493;50.276;9.372;2022-10-13T11:22:10;13.20;87.00
49413;DHT22;35493;50.276;9.372;2022-10-13T11:24:47;13.20;87.00
49413;DHT22;35493;50.276;9.372;2022-10-13T11:27:24;13.20;87.00
49413;DHT22;35493;50.276;9.372;2022-10-13T11:29:57;13.20;86.90
49413;DHT22;35493;50.276;9.372;2022-10-13T11:32:45;13.30;86.80
49413;DHT22;35493;50.276;9.372;2022-10-13T11:35:29;13.30;86.90
49413;DHT22;35493;50.276;9.372;2022-10-13T11:41:01;13.50;86.90
49413;DHT22;35493;50.276;9.372;2022-10-13T11:43:43;13.50;86.90
49413;DHT22;35493;50.276;9.372;2022-10-13T11:46:29;13.60;86.90
49413;DHT22;35493;50.276;9.372;2022-10-13T11:49:15;13.60;86.90
49413;DHT22;35493;50.276;9.372;2022-10-13T11:52:05;13.70;86.60
49413;DHT22;35493;50.276;9.372;2022-10-13T11:54:38;13.70;86.50
49413;DHT22;35493;50.276;9.372;2022-10-13T11:57:17;13.80;86.60
49413;DHT22;35493;50.276;9.372;2022-10-13T11:59:48;13.90;86.50
49413;DHT22;35493;50.276;9.372;2022-10-13T12:02:17;13.90;86.50
49413;DHT22;35493;50.276;9.372;2022-10-13T12:04:57;13.90;86.50
49413;DHT22;35493;50.276;9.372;2022-10-13T12:07:28;14.00;86.60
49413;DHT22;35493;50.276;9.372;2022-10-13T12:09:56;13.90;86.60
49413;DHT22;35493;50.276;9.372;2022-10-13T12:12:25;13.90;86.50
49413;DHT22;35493;50.276;9.372;2022-10-13T12:14:54;14.00;86.40
49413;DHT22;35493;50.276;9.372;2022-10-13T12:17:26;14.00;86.40
49413;DHT22;35493;50.276;9.372;2022-10-13T12:19:55;14.10;86.40
49413;DHT22;35493;50.276;9.372;2022-10-13T12:22:25;14.20;86.20
49413;DHT22;35493;50.276;9.372;2022-10-13T12:24:59;14.30;86.20
49413;DHT22;35493;50.276;9.372;2022-10-13T12:27:28;14.40;86.10
49413;DHT22;35493;50.276;9.372;2022-10-13T12:29:58;14.40;85.90
49413;DHT22;35493;50.276;9.372;2022-10-13T12:32:27;14.50;85.90
49413;DHT22;35493;50.276;9.372;2022-10-13T12:34:54;14.60;85.80
49413;DHT22;35493;50.276;9.372;2022-10-13T12:37:28;14.60;85.60
49413;DHT22;35493;50.276;9.372;2022-10-13T12:39:56;14.50;85.70
49413;DHT22;35493;50.276;9.372;2022-10-13T12:42:27;14.50;85.70
49413;DHT22;35493;50.276;9.372;2022-10-13T12:44:55;14.40;85.60
49413;DHT22;35493;50.276;9.372;2022-10-13T12:47:38;14.50;85.80
49413;DHT22;35493;50.276;9.372;2022-10-13T12:50:30;14.40;85.90
49413;DHT22;35493;50.276;9.372;2022-10-13T12:53:10;14.40;85.90
49413;DHT22;35493;50.276;9.372;2022-10-13T12:55:54;14.50;85.80
49413;DHT22;35493;50.276;9.372;2022-10-13T12:58:26;14.50;85.70
49413;DHT22;35493;50.276;9.372;2022-10-13T13:01:04;14.50;85.80
49413;DHT22;35493;50.276;9.372;2022-10-13T13:03:35;14.60;85.90
49413;DHT22;35493;50.276;9.372;2022-10-13T13:06:08;14.60;85.70
49413;DHT22;35493;50.276;9.372;2022-10-13T13:08:36;14.60;85.50
49413;DHT22;35493;50.276;9.372;2022-10-13T13:11:06;14.70;85.40
49413;DHT22;35493;50.276;9.372;2022-10-13T13:13:33;14.70;85.50
49413;DHT22;35493;50.276;9.372;2022-10-13T13:16:19;14.80;85.50
49413;DHT22;35493;50.276;9.372;2022-10-13T13:18:50;14.80;85.40
49413;DHT22;35493;50.276;9.372;2022-10-13T13:21:18;14.80;85.50
49413;DHT22;35493;50.276;9.372;2022-10-13T13:23:46;14.80;85.40
49413;DHT22;35493;50.276;9.372;2022-10-13T13:26:15;14.90;85.40
49413;DHT22;35493;50.276;9.372;2022-10-13T13:28:45;14.90;85.40
49413;DHT22;35493;50.276;9.372;2022-10-13T13:31:16;14.90;85.40
49413;DHT22;35493;50.276;9.372;2022-10-13T13:33:43;14.90;85.30
49413;DHT22;35493;50.276;9.372;2022-10-13T13:36:17;14.90;85.30
49413;DHT22;35493;50.276;9.372;2022-10-13T13:38:46;14.90;85.30
49413;DHT22;35493;50.276;9.372;2022-10-13T13:41:14;14.90;85.30
49413;DHT22;35493;50.276;9.372;2022-10-13T13:43:41;14.90;85.30
49413;DHT22;35493;50.276;9.372;2022-10-13T13:46:14;14.90;85.30
49413;DHT22;35493;50.276;9.372;2022-10-13T13:48:41;14.80;85.20
49413;DHT22;35493;50.276;9.372;2022-10-13T13:51:08;14.80;85.40
49413;DHT22;35493;50.276;9.372;2022-10-13T13:53:37;14.80;85.50
49413;DHT22;35493;50.276;9.372;2022-10-13T13:56:04;14.70;85.50
49413;DHT22;35493;50.276;9.372;2022-10-13T13:58:31;14.70;85.60
49413;DHT22;35493;50.276;9.372;2022-10-13T14:00:58;14.80;85.50
49413;DHT22;35493;50.276;9.372;2022-10-13T14:03:27;14.80;85.30
49413;DHT22;35493;50.276;9.372;2022-10-13T14:05:54;14.80;85.30
49413;DHT22;35493;50.276;9.372;2022-10-13T14:08:22;14.80;85.30
49413;DHT22;35493;50.276;9.372;2022-10-13T14:10:50;14.80;85.20
49413;DHT22;35493;50.276;9.372;2022-10-13T14:13:17;14.80;85.40
49413;DHT22;35493;50.276;9.372;2022-10-13T14:15:44;14.90;85.40
49413;DHT22;35493;50.276;9.372;2022-10-13T14:18:11;14.90;85.40
49413;DHT22;35493;50.276;9.372;2022-10-13T14:20:40;14.90;85.40
49413;DHT22;35493;50.276;9.372;2022-10-13T14:23:08;14.90;85.10
49413;DHT22;35493;50.276;9.372;2022-10-13T14:25:37;14.90;85.00
49413;DHT22;35493;50.276;9.372;2022-10-13T14:28:05;14.90;84.90
49413;DHT22;35493;50.276;9.372;2022-10-13T14:30:32;14.90;84.70
49413;DHT22;35493;50.276;9.372;2022-10-13T14:32:59;15.00;84.70
49413;DHT22;35493;50.276;9.372;2022-10-13T14:35:27;15.00;84.70
49413;DHT22;35493;50.276;9.372;2022-10-13T14:37:54;15.00;84.60
49413;DHT22;35493;50.276;9.372;2022-10-13T14:40:21;14.90;84.70
49413;DHT22;35493;50.276;9.372;2022-10-13T14:42:48;14.90;84.60
49413;DHT22;35493;50.276;9.372;2022-10-13T14:45:16;14.90;84.70
49413;DHT22;35493;50.276;9.372;2022-10-13T14:47:43;14.90;84.70
49413;DHT22;35493;50.276;9.372;2022-10-13T14:50:10;14.90;84.80
49413;DHT22;35493;50.276;9.372;2022-10-13T14:52:39;14.80;84.90
49413;DHT22;35493;50.276;9.372;2022-10-13T14:55:07;14.80;85.10
49413;DHT22;35493;50.276;9.372;2022-10-13T14:57:34;14.80;85.10
49413;DHT22;35493;50.276;9.372;2022-10-13T15:00:02;14.80;85.30
49413;DHT22;35493;50.276;9.372;2022-10-13T15:02:33;14.70;85.40
49413;DHT22;35493;50.276;9.372;2022-10-13T15:05:00;14.70;85.40
49413;DHT22;35493;50.276;9.372;2022-10-13T15:07:27;14.70;85.50
49413;DHT22;35493;50.276;9.372;2022-10-13T15:09:56;14.70;85.40
49413;DHT22;35493;50.276;9.372;2022-10-13T15:12:23;14.70;85.40
49413;DHT22;35493;50.276;9.372;2022-10-13T15:14:50;14.70;85.40
49413;DHT22;35493;50.276;9.372;2022-10-13T15:17:16;14.70;85.50
49413;DHT22;35493;50.276;9.372;2022-10-13T15:19:45;14.70;85.60
49413;DHT22;35493;50.276;9.372;2022-10-13T15:22:11;14.60;85.70
49413;DHT22;35493;50.276;9.372;2022-10-13T15:24:41;14.60;85.70
49413;DHT22;35493;50.276;9.372;2022-10-13T15:27:09;14.60;85.90
49413;DHT22;35493;50.276;9.372;2022-10-13T15:29:35;14.60;86.00
49413;DHT22;35493;50.276;9.372;2022-10-13T15:32:08;14.60;86.00
49413;DHT22;35493;50.276;9.372;2022-10-13T15:34:37;14.60;86.20
49413;DHT22;35493;50.276;9.372;2022-10-13T15:37:05;14.60;86.20
49413;DHT22;35493;50.276;9.372;2022-10-13T15:39:33;14.60;86.30
49413;DHT22;35493;50.276;9.372;2022-10-13T15:42:00;14.60;86.20
49413;DHT22;35493;50.276;9.372;2022-10-13T15:44:27;14.60;86.20
49413;DHT22;35493;50.276;9.372;2022-10-13T15:46:56;14.60;86.30
49413;DHT22;35493;50.276;9.372;2022-10-13T15:49:23;14.60;86.40
49413;DHT22;35493;50.276;9.372;2022-10-13T15:51:51;14.60;86.50
49413;DHT22;35493;50.276;9.372;2022-10-13T15:54:19;14.50;86.60
49413;DHT22;35493;50.276;9.372;2022-10-13T15:56:47;14.50;86.60